Time Latitude Longitude Accuracy (66% radius in meters) Altitude (meters) Speed (km/hour) Bearing (degrees) Battery (%) GPS flag
17:32:49 57.150618 39.348873 8 106.30000305176 0 0 3 1 delete
17:32:38 57.150607 39.348869 17.5 101.90000152588 0.31000000238419 302.03063964844 3 1 delete
18:32:21 0.000000 0.000000 0 0 0 0 3 0 delete
14:38:28 57.104015 39.383103 2.5 104.40000152588 1.6599999666214 181.30737304688 1 1 delete
14:38:23 57.104106 39.383132 2.5 106 2.1199998855591 185.69641113281 1 1 delete
14:38:13 57.104264 39.383241 4 105.5 1.7999999523163 185.537109375 1 1 delete
14:38:07 57.104357 39.383221 8.5 108.69999694824 1.7400000095367 186.92687988281 1 1 delete
14:27:58 57.105235 39.389261 3 92.400001525879 1.8999999761581 70.68603515625 2 1 delete
14:27:53 57.105182 39.389079 3.5 94.199996948242 1.789999961853 71.548461914062 2 1 delete
14:27:48 57.105148 39.388897 3.5 101.40000152588 2.0299999713898 75.03662109375 2 1 delete
14:27:37 57.105039 39.388636 8 116 0.94999998807907 38.682861328125 2 1 delete
14:17:28 57.091729 39.391235 3.5 115.69999694824 2.5699999332428 28.229370117188 2 1 delete
14:17:23 57.091607 39.391162 3.5 117.40000152588 2.6599998474121 21.09375 2 1 delete
14:17:18 57.091489 39.391081 3.5 117.30000305176 2.3399999141693 21.428833007812 2 1 delete
14:17:07 57.091301 39.390959 7.5 114.5 2.25 25.263061523438 2 1 delete
14:06:58 57.076913 39.389513 2.5 149.30000305176 2.1199998855591 21.231079101562 3 1 delete
14:06:53 57.076810 39.389467 2.5 150 1.9199999570847 19.940185546875 3 1 delete
14:06:48 57.076705 39.389396 3 151.19999694824 2.0299999713898 22.824096679688 3 1 delete
14:06:37 57.076542 39.389302 7.5 164.5 1.9799998998642 27.213134765625 3 1 delete
13:56:23 57.068752 39.390788 2.5 167 1.7199999094009 2.8948974609375 3 1 delete
13:56:18 57.068689 39.390772 3 165.60000610352 1.1100000143051 7.1356201171875 3 1 delete
13:56:12 57.068596 39.390799 3.5 167.19999694824 1.6899999380112 359.41772460938 3 1 delete
13:56:01 57.068447 39.390854 8 174.30000305176 1.1499999761581 7.261962890625 3 1 delete
13:45:52 57.061316 39.392158 2 166.10000610352 0.76999998092651 357.42919921875 4 1 delete
13:45:47 57.061252 39.392158 2.5 162.69999694824 0.88999998569489 4.229736328125 4 1 delete
13:45:31 57.061112 39.392243 8.5 161.89999389648 0.94999998807907 357.44018554688 4 1 delete
13:35:21 57.054800 39.390056 3.5 168.80000305176 0.71999996900558 287.01782226562 4 1 delete
13:35:16 57.054785 39.390150 4 168.10000610352 0.37000000476837 273.7353515625 4 1 delete
13:35:11 57.054767 39.390245 4 169.5 0.42999997735023 283.9306640625 4 1 delete
13:34:55 57.054827 39.390419 9 171.60000610352 0.84999996423721 215.95825195312 4 1 delete
13:24:45 57.049191 39.391278 1.5 142.80000305176 0.70999997854233 66.077270507812 5 1 delete
13:24:40 57.049160 39.391134 1.5 142.69999694824 0.94999998807907 81.765747070312 5 1 delete
13:24:30 57.049083 39.390876 2 145 0.9099999666214 41.039428710938 5 1 delete
13:24:20 57.048957 39.390804 2 146.5 1.1899999380112 8.1024169921875 5 1 delete
13:24:10 57.048834 39.390930 2 148.5 1.039999961853 330.25451660156 5 1 delete
13:24:00 57.048750 39.391141 2 150.5 0.79999995231628 334.37438964844 5 1 delete
13:23:50 57.048651 39.391292 2 151.10000610352 1.3700000047684 351.79870605469 5 1 delete
13:23:40 57.048527 39.391423 2 150.89999389648 1.0900000333786 9.173583984375 5 1 delete
13:23:30 57.048383 39.391506 2 150.30000305176 1.039999961853 3.240966796875 5 1 delete
13:23:20 57.048282 39.391563 2 150.10000610352 0.53999996185303 23.560180664062 5 1 delete
13:23:10 57.048171 39.391619 2.5 150.39999389648 1.1399999856949 6.7840576171875 5 1 delete
13:23:00 57.048056 39.391701 2 149.30000305176 0.6599999666214 357.91259765625 5 1 delete
13:22:50 57.047961 39.391791 2.5 151.89999389648 0.66999995708466 343.55895996094 5 1 delete
13:22:40 57.047911 39.392007 2.5 150.80000305176 0.56999999284744 280.73913574219 5 1 delete
13:22:20 57.047854 39.392174 2 148.69999694824 0 0 5 1 delete
13:21:45 57.047869 39.392167 3 152.5 0.12999999523163 291.71997070312 5 1 delete
13:21:35 57.047787 39.392310 3.5 151.60000610352 0.44999998807907 283.7548828125 5 1 delete
13:21:25 57.047737 39.392476 3.5 153.69999694824 0.5799999833107 330.00183105469 5 1 delete
13:21:15 57.047662 39.392636 3.5 155.30000305176 0.61000001430511 310.17150878906 5 1 delete
13:21:10 57.047632 39.392708 4 161.60000610352 0.34999999403954 289.78637695312 5 1 delete